sensor_id;sensor_type;location;lat;lon;timestamp;P1;durP1;ratioP1;P2;durP2;ratioP2
46110;SDS011;31849;55.992;37.252;2023-07-31T06:17:06;2.80;;;2.17;;
46110;SDS011;31849;55.992;37.252;2023-07-31T06:22:10;3.20;;;2.05;;
46110;SDS011;31849;55.992;37.252;2023-07-31T06:27:13;2.83;;;2.10;;
46110;SDS011;31849;55.992;37.252;2023-07-31T06:32:18;6.15;;;2.47;;
46110;SDS011;31849;55.992;37.252;2023-07-31T06:37:22;5.97;;;3.10;;
46110;SDS011;31849;55.992;37.252;2023-07-31T06:42:26;10.50;;;4.15;;
46110;SDS011;31849;55.992;37.252;2023-07-31T06:47:31;2.55;;;2.20;;
46110;SDS011;31849;55.992;37.252;2023-07-31T06:52:34;4.50;;;2.30;;
46110;SDS011;31849;55.992;37.252;2023-07-31T06:57:38;4.55;;;2.40;;
46110;SDS011;31849;55.992;37.252;2023-07-31T07:02:43;10.10;;;3.28;;
46110;SDS011;31849;55.992;37.252;2023-07-31T07:07:49;4.25;;;2.70;;
46110;SDS011;31849;55.992;37.252;2023-07-31T07:12:54;2.47;;;2.10;;
46110;SDS011;31849;55.992;37.252;2023-07-31T07:17:59;3.83;;;2.10;;
46110;SDS011;31849;55.992;37.252;2023-07-31T07:23:03;5.55;;;2.72;;
46110;SDS011;31849;55.992;37.252;2023-07-31T07:28:06;5.80;;;2.60;;
46110;SDS011;31849;55.992;37.252;2023-07-31T07:33:11;5.00;;;2.60;;
46110;SDS011;31849;55.992;37.252;2023-07-31T07:38:15;3.38;;;2.30;;
46110;SDS011;31849;55.992;37.252;2023-07-31T07:43:20;3.40;;;2.20;;
46110;SDS011;31849;55.992;37.252;2023-07-31T07:48:25;2.85;;;2.20;;
46110;SDS011;31849;55.992;37.252;2023-07-31T07:53:29;2.83;;;2.10;;
46110;SDS011;31849;55.992;37.252;2023-07-31T07:58:32;2.95;;;2.30;;
46110;SDS011;31849;55.992;37.252;2023-07-31T08:03:38;2.40;;;2.10;;
46110;SDS011;31849;55.992;37.252;2023-07-31T08:08:41;3.80;;;2.00;;
46110;SDS011;31849;55.992;37.252;2023-07-31T08:13:46;3.50;;;2.20;;
46110;SDS011;31849;55.992;37.252;2023-07-31T08:18:51;2.42;;;2.20;;
46110;SDS011;31849;55.992;37.252;2023-07-31T08:23:54;2.80;;;2.00;;
46110;SDS011;31849;55.992;37.252;2023-07-31T08:28:58;4.45;;;1.90;;
46110;SDS011;31849;55.992;37.252;2023-07-31T08:34:03;4.13;;;2.20;;
46110;SDS011;31849;55.992;37.252;2023-07-31T08:39:06;4.18;;;2.17;;
46110;SDS011;31849;55.992;37.252;2023-07-31T08:44:10;2.83;;;2.10;;
46110;SDS011;31849;55.992;37.252;2023-07-31T08:49:16;2.88;;;2.22;;
46110;SDS011;31849;55.992;37.252;2023-07-31T08:54:23;4.55;;;1.98;;
46110;SDS011;31849;55.992;37.252;2023-07-31T08:59:31;4.90;;;1.92;;
46110;SDS011;31849;55.992;37.252;2023-07-31T09:04:38;3.00;;;1.95;;
46110;SDS011;31849;55.992;37.252;2023-07-31T09:09:42;3.33;;;2.13;;
46110;SDS011;31849;55.992;37.252;2023-07-31T09:14:47;4.47;;;1.88;;
46110;SDS011;31849;55.992;37.252;2023-07-31T09:19:52;3.05;;;1.90;;
46110;SDS011;31849;55.992;37.252;2023-07-31T09:24:56;3.10;;;2.10;;
46110;SDS011;31849;55.992;37.252;2023-07-31T09:30:07;2.92;;;1.77;;
46110;SDS011;31849;55.992;37.252;2023-07-31T09:35:19;3.08;;;2.00;;
46110;SDS011;31849;55.992;37.252;2023-07-31T09:40:28;4.38;;;2.03;;
46110;SDS011;31849;55.992;37.252;2023-07-31T09:45:33;3.00;;;1.98;;
46110;SDS011;31849;55.992;37.252;2023-07-31T09:50:44;4.88;;;2.17;;
46110;SDS011;31849;55.992;37.252;2023-07-31T09:55:49;3.92;;;2.17;;
46110;SDS011;31849;55.992;37.252;2023-07-31T10:00:53;5.07;;;2.08;;
46110;SDS011;31849;55.992;37.252;2023-07-31T10:05:58;5.28;;;2.20;;
46110;SDS011;31849;55.992;37.252;2023-07-31T10:11:05;4.30;;;2.38;;
46110;SDS011;31849;55.992;37.252;2023-07-31T10:16:12;3.78;;;1.85;;
46110;SDS011;31849;55.992;37.252;2023-07-31T10:21:20;3.28;;;2.22;;
46110;SDS011;31849;55.992;37.252;2023-07-31T10:26:23;3.03;;;2.17;;
46110;SDS011;31849;55.992;37.252;2023-07-31T10:31:29;4.68;;;2.45;;
46110;SDS011;31849;55.992;37.252;2023-07-31T10:36:34;3.15;;;2.13;;
46110;SDS011;31849;55.992;37.252;2023-07-31T10:41:38;5.43;;;2.25;;
46110;SDS011;31849;55.992;37.252;2023-07-31T10:46:45;3.55;;;2.20;;
46110;SDS011;31849;55.992;37.252;2023-07-31T10:51:50;3.95;;;2.50;;
46110;SDS011;31849;55.992;37.252;2023-07-31T10:56:53;5.32;;;2.40;;
46110;SDS011;31849;55.992;37.252;2023-07-31T11:01:57;2.92;;;2.10;;
46110;SDS011;31849;55.992;37.252;2023-07-31T11:07:05;6.13;;;2.90;;
46110;SDS011;31849;55.992;37.252;2023-07-31T11:12:12;4.82;;;2.00;;
46110;SDS011;31849;55.992;37.252;2023-07-31T11:17:16;5.32;;;2.33;;
46110;SDS011;31849;55.992;37.252;2023-07-31T11:22:20;4.72;;;2.30;;
46110;SDS011;31849;55.992;37.252;2023-07-31T11:27:27;4.78;;;2.30;;
46110;SDS011;31849;55.992;37.252;2023-07-31T11:32:30;4.47;;;2.10;;
46110;SDS011;31849;55.992;37.252;2023-07-31T11:37:40;7.53;;;2.50;;
46110;SDS011;31849;55.992;37.252;2023-07-31T11:42:44;5.05;;;2.50;;
46110;SDS011;31849;55.992;37.252;2023-07-31T11:47:48;3.90;;;2.63;;
46110;SDS011;31849;55.992;37.252;2023-07-31T11:52:54;5.25;;;2.50;;
46110;SDS011;31849;55.992;37.252;2023-07-31T11:58:02;6.25;;;2.30;;
46110;SDS011;31849;55.992;37.252;2023-07-31T12:03:06;7.80;;;2.85;;
46110;SDS011;31849;55.992;37.252;2023-07-31T12:08:12;6.25;;;2.67;;
46110;SDS011;31849;55.992;37.252;2023-07-31T12:13:19;4.15;;;2.38;;
46110;SDS011;31849;55.992;37.252;2023-07-31T12:18:25;5.28;;;2.42;;
46110;SDS011;31849;55.992;37.252;2023-07-31T12:23:31;3.42;;;2.30;;
46110;SDS011;31849;55.992;37.252;2023-07-31T12:28:35;3.63;;;2.17;;
46110;SDS011;31849;55.992;37.252;2023-07-31T12:33:41;5.60;;;2.00;;
46110;SDS011;31849;55.992;37.252;2023-07-31T12:38:46;4.25;;;2.25;;
46110;SDS011;31849;55.992;37.252;2023-07-31T12:43:50;4.97;;;2.40;;
46110;SDS011;31849;55.992;37.252;2023-07-31T12:48:53;3.00;;;2.33;;
46110;SDS011;31849;55.992;37.252;2023-07-31T12:53:58;5.25;;;2.45;;
46110;SDS011;31849;55.992;37.252;2023-07-31T12:59:02;4.70;;;2.75;;
46110;SDS011;31849;55.992;37.252;2023-07-31T13:04:06;6.85;;;2.20;;
46110;SDS011;31849;55.992;37.252;2023-07-31T13:09:11;4.40;;;2.40;;
46110;SDS011;31849;55.992;37.252;2023-07-31T13:14:15;3.85;;;2.20;;
46110;SDS011;31849;55.992;37.252;2023-07-31T13:19:19;4.40;;;2.70;;
46110;SDS011;31849;55.992;37.252;2023-07-31T13:24:24;3.95;;;2.60;;
46110;SDS011;31849;55.992;37.252;2023-07-31T13:29:27;5.45;;;3.03;;
46110;SDS011;31849;55.992;37.252;2023-07-31T13:34:31;3.92;;;2.70;;
46110;SDS011;31849;55.992;37.252;2023-07-31T13:44:40;4.88;;;2.78;;
46110;SDS011;31849;55.992;37.252;2023-07-31T13:49:44;3.58;;;2.42;;
46110;SDS011;31849;55.992;37.252;2023-07-31T13:59:52;4.93;;;2.70;;
46110;SDS011;31849;55.992;37.252;2023-07-31T14:10:00;4.33;;;2.50;;
46110;SDS011;31849;55.992;37.252;2023-07-31T14:15:06;3.47;;;2.63;;
46110;SDS011;31849;55.992;37.252;2023-07-31T14:20:10;4.10;;;2.55;;
46110;SDS011;31849;55.992;37.252;2023-07-31T14:25:16;4.03;;;2.70;;
46110;SDS011;31849;55.992;37.252;2023-07-31T14:30:20;3.70;;;2.53;;
46110;SDS011;31849;55.992;37.252;2023-07-31T14:35:24;5.38;;;2.78;;
46110;SDS011;31849;55.992;37.252;2023-07-31T14:45:32;4.05;;;2.83;;
46110;SDS011;31849;55.992;37.252;2023-07-31T14:55:40;7.22;;;3.15;;
46110;SDS011;31849;55.992;37.252;2023-07-31T15:00:43;5.15;;;2.58;;
46110;SDS011;31849;55.992;37.252;2023-07-31T15:10:52;5.88;;;2.80;;
46110;SDS011;31849;55.992;37.252;2023-07-31T15:15:59;6.60;;;2.60;;
46110;SDS011;31849;55.992;37.252;2023-07-31T15:21:02;5.00;;;2.72;;
46110;SDS011;31849;55.992;37.252;2023-07-31T15:26:09;5.88;;;3.17;;
46110;SDS011;31849;55.992;37.252;2023-07-31T15:31:13;4.25;;;2.95;;
46110;SDS011;31849;55.992;37.252;2023-07-31T15:36:17;7.75;;;3.42;;
46110;SDS011;31849;55.992;37.252;2023-07-31T15:41:22;5.93;;;3.47;;
46110;SDS011;31849;55.992;37.252;2023-07-31T15:46:27;5.22;;;2.90;;
46110;SDS011;31849;55.992;37.252;2023-07-31T15:51:30;6.20;;;3.08;;
46110;SDS011;31849;55.992;37.252;2023-07-31T15:56:35;5.10;;;3.08;;
46110;SDS011;31849;55.992;37.252;2023-07-31T16:01:40;5.22;;;3.08;;
46110;SDS011;31849;55.992;37.252;2023-07-31T16:06:43;5.93;;;2.67;;
46110;SDS011;31849;55.992;37.252;2023-07-31T16:11:49;5.28;;;2.80;;
46110;SDS011;31849;55.992;37.252;2023-07-31T16:16:52;5.90;;;3.03;;
46110;SDS011;31849;55.992;37.252;2023-07-31T16:21:57;3.83;;;2.50;;
46110;SDS011;31849;55.992;37.252;2023-07-31T16:27:02;5.25;;;3.13;;
46110;SDS011;31849;55.992;37.252;2023-07-31T16:32:06;7.32;;;3.15;;
46110;SDS011;31849;55.992;37.252;2023-07-31T16:37:13;5.18;;;2.75;;
46110;SDS011;31849;55.992;37.252;2023-07-31T16:42:18;5.40;;;3.40;;
46110;SDS011;31849;55.992;37.252;2023-07-31T16:47:22;5.35;;;3.38;;
46110;SDS011;31849;55.992;37.252;2023-07-31T16:52:25;3.88;;;3.05;;
46110;SDS011;31849;55.992;37.252;2023-07-31T16:57:31;7.50;;;3.17;;
46110;SDS011;31849;55.992;37.252;2023-07-31T17:02:34;6.55;;;3.20;;
46110;SDS011;31849;55.992;37.252;2023-07-31T17:07:38;5.47;;;3.10;;
46110;SDS011;31849;55.992;37.252;2023-07-31T17:12:43;5.90;;;3.13;;
46110;SDS011;31849;55.992;37.252;2023-07-31T17:17:46;7.45;;;3.50;;
46110;SDS011;31849;55.992;37.252;2023-07-31T17:22:54;4.80;;;3.45;;
46110;SDS011;31849;55.992;37.252;2023-07-31T17:27:59;6.18;;;3.60;;
46110;SDS011;31849;55.992;37.252;2023-07-31T17:33:03;8.55;;;3.60;;
46110;SDS011;31849;55.992;37.252;2023-07-31T17:38:06;6.43;;;3.67;;
46110;SDS011;31849;55.992;37.252;2023-07-31T17:43:11;8.70;;;3.70;;
46110;SDS011;31849;55.992;37.252;2023-07-31T17:48:15;6.03;;;3.85;;
46110;SDS011;31849;55.992;37.252;2023-07-31T17:53:19;9.57;;;3.75;;
46110;SDS011;31849;55.992;37.252;2023-07-31T17:58:24;8.85;;;4.50;;
46110;SDS011;31849;55.992;37.252;2023-07-31T18:03:28;6.88;;;4.03;;
46110;SDS011;31849;55.992;37.252;2023-07-31T18:08:32;8.55;;;3.92;;
46110;SDS011;31849;55.992;37.252;2023-07-31T18:13:37;8.10;;;3.97;;
46110;SDS011;31849;55.992;37.252;2023-07-31T18:18:41;6.00;;;4.30;;
46110;SDS011;31849;55.992;37.252;2023-07-31T18:23:44;7.57;;;4.23;;
46110;SDS011;31849;55.992;37.252;2023-07-31T18:28:49;8.63;;;5.07;;
46110;SDS011;31849;55.992;37.252;2023-07-31T18:33:53;7.88;;;4.35;;
46110;SDS011;31849;55.992;37.252;2023-07-31T18:38:57;8.18;;;4.50;;
46110;SDS011;31849;55.992;37.252;2023-07-31T18:44:02;8.15;;;4.57;;
46110;SDS011;31849;55.992;37.252;2023-07-31T18:49:06;11.15;;;5.00;;
46110;SDS011;31849;55.992;37.252;2023-07-31T18:54:09;10.57;;;5.13;;
46110;SDS011;31849;55.992;37.252;2023-07-31T18:59:14;11.38;;;5.20;;
46110;SDS011;31849;55.992;37.252;2023-07-31T19:04:18;8.80;;;4.72;;
46110;SDS011;31849;55.992;37.252;2023-07-31T19:09:27;6.97;;;4.53;;
46110;SDS011;31849;55.992;37.252;2023-07-31T19:14:33;12.90;;;6.22;;
46110;SDS011;31849;55.992;37.252;2023-07-31T19:19:37;10.52;;;6.47;;
46110;SDS011;31849;55.992;37.252;2023-07-31T19:24:40;10.60;;;7.00;;
46110;SDS011;31849;55.992;37.252;2023-07-31T19:29:48;9.88;;;6.30;;
46110;SDS011;31849;55.992;37.252;2023-07-31T19:34:51;11.82;;;6.07;;
46110;SDS011;31849;55.992;37.252;2023-07-31T19:39:55;7.38;;;4.97;;
46110;SDS011;31849;55.992;37.252;2023-07-31T19:45:00;7.97;;;5.07;;
46110;SDS011;31849;55.992;37.252;2023-07-31T19:50:06;9.02;;;5.60;;
46110;SDS011;31849;55.992;37.252;2023-07-31T19:55:10;10.48;;;5.10;;
46110;SDS011;31849;55.992;37.252;2023-07-31T20:00:15;9.30;;;6.63;;
46110;SDS011;31849;55.992;37.252;2023-07-31T20:05:19;9.35;;;5.80;;
46110;SDS011;31849;55.992;37.252;2023-07-31T20:10:22;13.90;;;6.73;;
46110;SDS011;31849;55.992;37.252;2023-07-31T20:15:27;10.37;;;6.50;;
46110;SDS011;31849;55.992;37.252;2023-07-31T20:20:31;11.48;;;7.63;;
46110;SDS011;31849;55.992;37.252;2023-07-31T20:25:35;17.57;;;9.40;;
46110;SDS011;31849;55.992;37.252;2023-07-31T20:30:39;15.77;;;9.23;;
46110;SDS011;31849;55.992;37.252;2023-07-31T20:35:43;10.57;;;7.93;;
46110;SDS011;31849;55.992;37.252;2023-07-31T20:40:48;11.50;;;7.07;;
46110;SDS011;31849;55.992;37.252;2023-07-31T20:45:54;10.70;;;6.22;;
46110;SDS011;31849;55.992;37.252;2023-07-31T20:50:59;14.15;;;8.52;;
46110;SDS011;31849;55.992;37.252;2023-07-31T20:56:03;12.75;;;8.32;;
46110;SDS011;31849;55.992;37.252;2023-07-31T21:01:08;8.60;;;6.10;;
46110;SDS011;31849;55.992;37.252;2023-07-31T21:06:12;9.98;;;7.22;;
46110;SDS011;31849;55.992;37.252;2023-07-31T21:11:18;12.13;;;7.72;;
46110;SDS011;31849;55.992;37.252;2023-07-31T21:16:23;12.80;;;7.27;;
46110;SDS011;31849;55.992;37.252;2023-07-31T21:21:26;10.50;;;6.85;;
46110;SDS011;31849;55.992;37.252;2023-07-31T21:26:30;9.17;;;7.03;;
46110;SDS011;31849;55.992;37.252;2023-07-31T21:31:35;12.37;;;7.47;;
46110;SDS011;31849;55.992;37.252;2023-07-31T21:36:38;10.80;;;6.65;;
46110;SDS011;31849;55.992;37.252;2023-07-31T21:41:42;12.70;;;7.10;;
46110;SDS011;31849;55.992;37.252;2023-07-31T21:46:47;15.20;;;7.23;;
46110;SDS011;31849;55.992;37.252;2023-07-31T21:51:51;13.05;;;7.18;;
46110;SDS011;31849;55.992;37.252;2023-07-31T21:56:54;12.77;;;7.23;;
46110;SDS011;31849;55.992;37.252;2023-07-31T22:01:59;13.30;;;8.10;;
46110;SDS011;31849;55.992;37.252;2023-07-31T22:07:04;13.38;;;7.68;;
46110;SDS011;31849;55.992;37.252;2023-07-31T22:12:08;16.35;;;7.97;;
46110;SDS011;31849;55.992;37.252;2023-07-31T22:17:13;12.35;;;7.20;;
46110;SDS011;31849;55.992;37.252;2023-07-31T22:22:16;12.73;;;7.82;;
46110;SDS011;31849;55.992;37.252;2023-07-31T22:27:20;12.43;;;7.60;;
46110;SDS011;31849;55.992;37.252;2023-07-31T22:32:25;12.10;;;7.70;;
46110;SDS011;31849;55.992;37.252;2023-07-31T22:37:28;13.40;;;7.13;;
46110;SDS011;31849;55.992;37.252;2023-07-31T22:42:32;14.07;;;8.23;;
46110;SDS011;31849;55.992;37.252;2023-07-31T22:47:37;13.43;;;7.27;;
46110;SDS011;31849;55.992;37.252;2023-07-31T22:52:42;12.60;;;7.03;;
46110;SDS011;31849;55.992;37.252;2023-07-31T22:57:45;16.93;;;7.47;;
46110;SDS011;31849;55.992;37.252;2023-07-31T23:02:50;14.40;;;7.30;;
46110;SDS011;31849;55.992;37.252;2023-07-31T23:07:54;12.35;;;7.65;;
46110;SDS011;31849;55.992;37.252;2023-07-31T23:12:57;13.77;;;7.67;;
46110;SDS011;31849;55.992;37.252;2023-07-31T23:18:02;13.30;;;8.17;;
46110;SDS011;31849;55.992;37.252;2023-07-31T23:23:10;16.65;;;7.22;;
46110;SDS011;31849;55.992;37.252;2023-07-31T23:28:13;12.60;;;7.13;;
46110;SDS011;31849;55.992;37.252;2023-07-31T23:33:18;13.57;;;7.32;;
46110;SDS011;31849;55.992;37.252;2023-07-31T23:38:22;12.68;;;6.70;;
46110;SDS011;31849;55.992;37.252;2023-07-31T23:43:26;11.05;;;7.32;;
46110;SDS011;31849;55.992;37.252;2023-07-31T23:48:31;11.30;;;7.60;;
46110;SDS011;31849;55.992;37.252;2023-07-31T23:53:34;10.63;;;7.22;;
46110;SDS011;31849;55.992;37.252;2023-07-31T23:58:38;12.00;;;7.87;;
